sensor_id;sensor_type;location;lat;lon;timestamp;P1;durP1;ratioP1;P2;durP2;ratioP2
64712;SDS011;51140;45.340;5.980;2023-05-27T00:01:22;13.93;;;7.35;;
64712;SDS011;51140;45.340;5.980;2023-05-27T00:03:47;13.35;;;6.88;;
64712;SDS011;51140;45.340;5.980;2023-05-27T00:06:12;12.20;;;6.90;;
64712;SDS011;51140;45.340;5.980;2023-05-27T00:08:38;16.77;;;7.22;;
64712;SDS011;51140;45.340;5.980;2023-05-27T00:11:03;10.32;;;6.63;;
64712;SDS011;51140;45.340;5.980;2023-05-27T00:13:29;13.27;;;7.35;;
64712;SDS011;51140;45.340;5.980;2023-05-27T00:15:54;11.60;;;7.68;;
64712;SDS011;51140;45.340;5.980;2023-05-27T00:18:20;12.13;;;6.93;;
64712;SDS011;51140;45.340;5.980;2023-05-27T00:20:46;11.10;;;6.60;;
64712;SDS011;51140;45.340;5.980;2023-05-27T00:23:11;14.32;;;6.70;;
64712;SDS011;51140;45.340;5.980;2023-05-27T00:25:37;13.10;;;7.15;;
64712;SDS011;51140;45.340;5.980;2023-05-27T00:28:03;13.30;;;6.95;;
64712;SDS011;51140;45.340;5.980;2023-05-27T00:30:28;12.05;;;7.38;;
64712;SDS011;51140;45.340;5.980;2023-05-27T00:32:54;11.23;;;6.88;;
64712;SDS011;51140;45.340;5.980;2023-05-27T00:35:20;12.95;;;6.90;;
64712;SDS011;51140;45.340;5.980;2023-05-27T00:37:45;12.57;;;7.68;;
64712;SDS011;51140;45.340;5.980;2023-05-27T00:40:11;13.30;;;7.65;;
64712;SDS011;51140;45.340;5.980;2023-05-27T00:42:39;12.98;;;6.60;;
64712;SDS011;51140;45.340;5.980;2023-05-27T00:45:04;13.38;;;7.32;;
64712;SDS011;51140;45.340;5.980;2023-05-27T00:47:31;12.98;;;7.15;;
64712;SDS011;51140;45.340;5.980;2023-05-27T00:49:58;12.45;;;7.28;;
64712;SDS011;51140;45.340;5.980;2023-05-27T00:52:24;11.15;;;7.22;;
64712;SDS011;51140;45.340;5.980;2023-05-27T00:54:50;16.50;;;8.02;;
64712;SDS011;51140;45.340;5.980;2023-05-27T00:57:16;12.23;;;7.32;;
64712;SDS011;51140;45.340;5.980;2023-05-27T00:59:42;15.43;;;7.63;;
64712;SDS011;51140;45.340;5.980;2023-05-27T01:02:07;11.85;;;6.93;;
64712;SDS011;51140;45.340;5.980;2023-05-27T01:04:33;12.52;;;6.68;;
64712;SDS011;51140;45.340;5.980;2023-05-27T01:07:02;11.45;;;7.22;;
64712;SDS011;51140;45.340;5.980;2023-05-27T01:15:02;12.02;;;6.88;;
64712;SDS011;51140;45.340;5.980;2023-05-27T01:17:30;10.05;;;6.57;;
64712;SDS011;51140;45.340;5.980;2023-05-27T01:19:57;13.57;;;7.53;;
64712;SDS011;51140;45.340;5.980;2023-05-27T01:22:26;15.63;;;7.47;;
64712;SDS011;51140;45.340;5.980;2023-05-27T01:24:53;17.70;;;7.95;;
64712;SDS011;51140;45.340;5.980;2023-05-27T01:27:19;12.20;;;7.35;;
64712;SDS011;51140;45.340;5.980;2023-05-27T01:29:45;13.93;;;7.20;;
64712;SDS011;51140;45.340;5.980;2023-05-27T01:32:30;13.13;;;7.05;;
64712;SDS011;51140;45.340;5.980;2023-05-27T01:35:11;12.55;;;7.72;;
64712;SDS011;51140;45.340;5.980;2023-05-27T01:37:42;12.43;;;7.40;;
64712;SDS011;51140;45.340;5.980;2023-05-27T01:40:10;11.55;;;7.47;;
64712;SDS011;51140;45.340;5.980;2023-05-27T01:42:38;12.65;;;7.22;;
64712;SDS011;51140;45.340;5.980;2023-05-27T01:45:06;14.55;;;8.20;;
64712;SDS011;51140;45.340;5.980;2023-05-27T01:47:33;18.17;;;7.97;;
64712;SDS011;51140;45.340;5.980;2023-05-27T01:49:59;12.63;;;7.32;;
64712;SDS011;51140;45.340;5.980;2023-05-27T01:52:25;13.43;;;7.43;;
64712;SDS011;51140;45.340;5.980;2023-05-27T01:54:51;12.20;;;7.35;;
64712;SDS011;51140;45.340;5.980;2023-05-27T01:57:17;12.52;;;7.82;;
64712;SDS011;51140;45.340;5.980;2023-05-27T01:59:43;28.95;;;7.97;;
64712;SDS011;51140;45.340;5.980;2023-05-27T02:02:08;11.38;;;6.90;;
64712;SDS011;51140;45.340;5.980;2023-05-27T02:04:33;13.93;;;8.70;;
64712;SDS011;51140;45.340;5.980;2023-05-27T02:06:59;12.32;;;7.82;;
64712;SDS011;51140;45.340;5.980;2023-05-27T02:09:25;14.20;;;7.22;;
64712;SDS011;51140;45.340;5.980;2023-05-27T02:11:50;16.10;;;8.13;;
64712;SDS011;51140;45.340;5.980;2023-05-27T02:14:16;12.57;;;7.55;;
64712;SDS011;51140;45.340;5.980;2023-05-27T02:16:42;12.43;;;7.47;;
64712;SDS011;51140;45.340;5.980;2023-05-27T02:19:08;14.82;;;7.80;;
64712;SDS011;51140;45.340;5.980;2023-05-27T02:21:34;11.48;;;7.22;;
64712;SDS011;51140;45.340;5.980;2023-05-27T02:24:00;11.60;;;7.82;;
64712;SDS011;51140;45.340;5.980;2023-05-27T02:26:26;17.65;;;7.85;;
64712;SDS011;51140;45.340;5.980;2023-05-27T02:28:51;11.40;;;7.03;;
64712;SDS011;51140;45.340;5.980;2023-05-27T02:31:17;14.68;;;8.27;;
64712;SDS011;51140;45.340;5.980;2023-05-27T02:33:42;11.95;;;7.72;;
64712;SDS011;51140;45.340;5.980;2023-05-27T02:36:08;15.70;;;8.07;;
64712;SDS011;51140;45.340;5.980;2023-05-27T02:38:33;11.90;;;7.63;;
64712;SDS011;51140;45.340;5.980;2023-05-27T02:40:59;13.65;;;7.78;;
64712;SDS011;51140;45.340;5.980;2023-05-27T02:43:25;13.25;;;8.95;;
64712;SDS011;51140;45.340;5.980;2023-05-27T02:45:50;13.65;;;7.97;;
64712;SDS011;51140;45.340;5.980;2023-05-27T02:48:15;13.52;;;7.85;;
64712;SDS011;51140;45.340;5.980;2023-05-27T02:50:41;13.85;;;7.90;;
64712;SDS011;51140;45.340;5.980;2023-05-27T02:53:07;16.48;;;8.07;;
64712;SDS011;51140;45.340;5.980;2023-05-27T02:55:33;11.65;;;7.10;;
64712;SDS011;51140;45.340;5.980;2023-05-27T02:57:58;13.60;;;7.75;;
64712;SDS011;51140;45.340;5.980;2023-05-27T03:00:23;11.43;;;7.00;;
64712;SDS011;51140;45.340;5.980;2023-05-27T03:02:49;11.65;;;7.22;;
64712;SDS011;51140;45.340;5.980;2023-05-27T03:05:14;12.43;;;8.25;;
64712;SDS011;51140;45.340;5.980;2023-05-27T03:07:40;14.68;;;8.50;;
64712;SDS011;51140;45.340;5.980;2023-05-27T03:10:06;14.95;;;8.13;;
64712;SDS011;51140;45.340;5.980;2023-05-27T03:12:32;13.80;;;7.82;;
64712;SDS011;51140;45.340;5.980;2023-05-27T03:14:57;12.52;;;8.05;;
64712;SDS011;51140;45.340;5.980;2023-05-27T03:17:23;18.85;;;8.25;;
64712;SDS011;51140;45.340;5.980;2023-05-27T03:19:48;11.80;;;8.35;;
64712;SDS011;51140;45.340;5.980;2023-05-27T03:22:13;12.80;;;7.53;;
64712;SDS011;51140;45.340;5.980;2023-05-27T03:24:39;12.38;;;7.88;;
64712;SDS011;51140;45.340;5.980;2023-05-27T03:27:05;11.77;;;7.13;;
64712;SDS011;51140;45.340;5.980;2023-05-27T03:29:31;12.60;;;8.00;;
64712;SDS011;51140;45.340;5.980;2023-05-27T03:31:56;10.95;;;7.55;;
64712;SDS011;51140;45.340;5.980;2023-05-27T03:34:22;11.95;;;7.82;;
64712;SDS011;51140;45.340;5.980;2023-05-27T03:36:48;14.73;;;8.05;;
64712;SDS011;51140;45.340;5.980;2023-05-27T03:39:14;16.77;;;8.00;;
64712;SDS011;51140;45.340;5.980;2023-05-27T03:41:40;13.38;;;7.93;;
64712;SDS011;51140;45.340;5.980;2023-05-27T03:44:06;12.13;;;6.88;;
64712;SDS011;51140;45.340;5.980;2023-05-27T03:46:32;10.50;;;7.22;;
64712;SDS011;51140;45.340;5.980;2023-05-27T03:48:57;13.70;;;7.80;;
64712;SDS011;51140;45.340;5.980;2023-05-27T03:51:23;12.27;;;7.25;;
64712;SDS011;51140;45.340;5.980;2023-05-27T03:53:49;11.77;;;7.25;;
64712;SDS011;51140;45.340;5.980;2023-05-27T03:56:15;12.77;;;7.97;;
64712;SDS011;51140;45.340;5.980;2023-05-27T03:58:40;12.52;;;8.32;;
64712;SDS011;51140;45.340;5.980;2023-05-27T04:01:05;14.30;;;8.15;;
64712;SDS011;51140;45.340;5.980;2023-05-27T04:03:31;16.10;;;7.82;;
64712;SDS011;51140;45.340;5.980;2023-05-27T04:05:57;13.32;;;9.13;;
64712;SDS011;51140;45.340;5.980;2023-05-27T04:08:23;18.98;;;8.05;;
64712;SDS011;51140;45.340;5.980;2023-05-27T04:10:51;13.43;;;7.38;;
64712;SDS011;51140;45.340;5.980;2023-05-27T04:13:17;13.50;;;7.80;;
64712;SDS011;51140;45.340;5.980;2023-05-27T04:15:43;12.90;;;9.43;;
64712;SDS011;51140;45.340;5.980;2023-05-27T04:18:09;13.73;;;8.32;;
64712;SDS011;51140;45.340;5.980;2023-05-27T04:20:38;10.98;;;7.55;;
64712;SDS011;51140;45.340;5.980;2023-05-27T04:23:09;14.52;;;8.05;;
64712;SDS011;51140;45.340;5.980;2023-05-27T04:25:35;11.80;;;8.07;;
64712;SDS011;51140;45.340;5.980;2023-05-27T04:28:01;13.75;;;7.18;;
64712;SDS011;51140;45.340;5.980;2023-05-27T04:30:30;14.52;;;8.00;;
64712;SDS011;51140;45.340;5.980;2023-05-27T04:32:56;11.70;;;7.60;;
64712;SDS011;51140;45.340;5.980;2023-05-27T04:35:22;12.13;;;7.85;;
64712;SDS011;51140;45.340;5.980;2023-05-27T04:37:48;11.93;;;7.45;;
64712;SDS011;51140;45.340;5.980;2023-05-27T04:40:13;17.40;;;7.60;;
64712;SDS011;51140;45.340;5.980;2023-05-27T04:42:39;11.68;;;7.47;;
64712;SDS011;51140;45.340;5.980;2023-05-27T04:45:05;16.55;;;8.07;;
64712;SDS011;51140;45.340;5.980;2023-05-27T04:47:32;11.82;;;8.02;;
64712;SDS011;51140;45.340;5.980;2023-05-27T04:49:58;13.00;;;7.80;;
64712;SDS011;51140;45.340;5.980;2023-05-27T04:52:26;13.95;;;7.82;;
64712;SDS011;51140;45.340;5.980;2023-05-27T04:54:52;14.98;;;7.78;;
64712;SDS011;51140;45.340;5.980;2023-05-27T04:57:19;14.35;;;7.60;;
64712;SDS011;51140;45.340;5.980;2023-05-27T04:59:46;14.43;;;7.32;;
64712;SDS011;51140;45.340;5.980;2023-05-27T05:02:24;11.85;;;6.78;;
64712;SDS011;51140;45.340;5.980;2023-05-27T05:04:52;14.90;;;7.53;;
64712;SDS011;51140;45.340;5.980;2023-05-27T05:07:17;10.93;;;6.80;;
64712;SDS011;51140;45.340;5.980;2023-05-27T05:09:44;12.23;;;6.93;;
64712;SDS011;51140;45.340;5.980;2023-05-27T05:12:10;12.07;;;6.78;;
64712;SDS011;51140;45.340;5.980;2023-05-27T05:14:35;11.05;;;6.78;;
64712;SDS011;51140;45.340;5.980;2023-05-27T05:17:00;11.07;;;7.03;;
64712;SDS011;51140;45.340;5.980;2023-05-27T05:19:26;13.43;;;7.28;;
64712;SDS011;51140;45.340;5.980;2023-05-27T05:21:51;11.48;;;7.00;;
64712;SDS011;51140;45.340;5.980;2023-05-27T05:24:17;13.23;;;7.75;;
64712;SDS011;51140;45.340;5.980;2023-05-27T05:26:42;11.65;;;7.20;;
64712;SDS011;51140;45.340;5.980;2023-05-27T05:29:09;12.60;;;7.50;;
64712;SDS011;51140;45.340;5.980;2023-05-27T05:31:36;11.15;;;7.35;;
64712;SDS011;51140;45.340;5.980;2023-05-27T05:34:01;15.25;;;8.18;;
64712;SDS011;51140;45.340;5.980;2023-05-27T05:36:27;16.08;;;7.82;;
64712;SDS011;51140;45.340;5.980;2023-05-27T05:38:52;11.50;;;7.80;;
64712;SDS011;51140;45.340;5.980;2023-05-27T05:41:17;15.20;;;7.88;;
64712;SDS011;51140;45.340;5.980;2023-05-27T05:43:43;13.07;;;7.75;;
64712;SDS011;51140;45.340;5.980;2023-05-27T05:46:08;14.55;;;7.80;;
64712;SDS011;51140;45.340;5.980;2023-05-27T05:48:33;11.98;;;7.65;;
64712;SDS011;51140;45.340;5.980;2023-05-27T05:50:59;16.48;;;7.97;;
64712;SDS011;51140;45.340;5.980;2023-05-27T05:53:25;11.27;;;7.22;;
64712;SDS011;51140;45.340;5.980;2023-05-27T05:55:51;16.40;;;7.95;;
64712;SDS011;51140;45.340;5.980;2023-05-27T05:58:16;11.07;;;7.35;;
64712;SDS011;51140;45.340;5.980;2023-05-27T06:00:42;11.75;;;7.18;;
64712;SDS011;51140;45.340;5.980;2023-05-27T06:03:07;13.18;;;7.40;;
64712;SDS011;51140;45.340;5.980;2023-05-27T06:05:32;15.88;;;7.28;;
64712;SDS011;51140;45.340;5.980;2023-05-27T06:07:58;11.27;;;7.05;;
64712;SDS011;51140;45.340;5.980;2023-05-27T06:10:23;14.63;;;7.47;;
64712;SDS011;51140;45.340;5.980;2023-05-27T06:12:48;10.23;;;7.35;;
64712;SDS011;51140;45.340;5.980;2023-05-27T06:15:14;14.32;;;7.32;;
64712;SDS011;51140;45.340;5.980;2023-05-27T06:17:40;14.07;;;7.68;;
64712;SDS011;51140;45.340;5.980;2023-05-27T06:20:06;12.25;;;7.50;;
64712;SDS011;51140;45.340;5.980;2023-05-27T06:22:32;16.98;;;9.23;;
64712;SDS011;51140;45.340;5.980;2023-05-27T06:24:57;16.48;;;9.40;;
64712;SDS011;51140;45.340;5.980;2023-05-27T06:27:22;15.15;;;10.20;;
64712;SDS011;51140;45.340;5.980;2023-05-27T06:29:48;15.07;;;8.30;;
64712;SDS011;51140;45.340;5.980;2023-05-27T06:32:14;16.42;;;9.60;;
64712;SDS011;51140;45.340;5.980;2023-05-27T06:34:39;17.15;;;10.60;;
64712;SDS011;51140;45.340;5.980;2023-05-27T06:37:05;13.98;;;9.40;;
64712;SDS011;51140;45.340;5.980;2023-05-27T06:39:30;16.77;;;10.30;;
64712;SDS011;51140;45.340;5.980;2023-05-27T06:41:56;17.05;;;10.02;;
64712;SDS011;51140;45.340;5.980;2023-05-27T06:44:21;15.82;;;8.73;;
64712;SDS011;51140;45.340;5.980;2023-05-27T06:46:46;15.05;;;7.72;;
64712;SDS011;51140;45.340;5.980;2023-05-27T06:49:12;11.45;;;7.43;;
64712;SDS011;51140;45.340;5.980;2023-05-27T06:51:37;13.88;;;7.57;;
64712;SDS011;51140;45.340;5.980;2023-05-27T06:54:03;13.68;;;7.45;;
64712;SDS011;51140;45.340;5.980;2023-05-27T06:56:28;13.40;;;7.25;;
64712;SDS011;51140;45.340;5.980;2023-05-27T06:58:53;13.70;;;7.40;;
64712;SDS011;51140;45.340;5.980;2023-05-27T07:01:19;11.48;;;7.35;;
64712;SDS011;51140;45.340;5.980;2023-05-27T07:03:45;13.90;;;6.93;;
64712;SDS011;51140;45.340;5.980;2023-05-27T07:06:10;13.63;;;7.72;;
64712;SDS011;51140;45.340;5.980;2023-05-27T07:08:35;11.82;;;7.00;;
64712;SDS011;51140;45.340;5.980;2023-05-27T07:11:01;12.77;;;7.20;;
64712;SDS011;51140;45.340;5.980;2023-05-27T07:13:26;10.50;;;6.82;;
64712;SDS011;51140;45.340;5.980;2023-05-27T07:15:51;11.15;;;6.78;;
64712;SDS011;51140;45.340;5.980;2023-05-27T07:18:17;11.90;;;6.88;;
64712;SDS011;51140;45.340;5.980;2023-05-27T07:20:42;12.48;;;6.68;;
64712;SDS011;51140;45.340;5.980;2023-05-27T07:23:08;10.25;;;6.10;;
64712;SDS011;51140;45.340;5.980;2023-05-27T07:25:34;10.93;;;6.18;;
64712;SDS011;51140;45.340;5.980;2023-05-27T07:27:59;13.43;;;5.88;;
64712;SDS011;51140;45.340;5.980;2023-05-27T07:30:25;11.90;;;5.20;;
64712;SDS011;51140;45.340;5.980;2023-05-27T07:32:52;9.65;;;5.50;;
64712;SDS011;51140;45.340;5.980;2023-05-27T07:35:18;10.00;;;6.28;;
64712;SDS011;51140;45.340;5.980;2023-05-27T07:37:44;13.50;;;5.72;;
64712;SDS011;51140;45.340;5.980;2023-05-27T07:40:09;9.52;;;6.10;;
64712;SDS011;51140;45.340;5.980;2023-05-27T07:42:35;9.70;;;5.90;;
64712;SDS011;51140;45.340;5.980;2023-05-27T07:45:02;9.40;;;6.03;;
64712;SDS011;51140;45.340;5.980;2023-05-27T07:47:28;9.65;;;6.38;;
64712;SDS011;51140;45.340;5.980;2023-05-27T07:49:53;11.75;;;6.38;;
64712;SDS011;51140;45.340;5.980;2023-05-27T07:52:18;11.93;;;5.93;;
64712;SDS011;51140;45.340;5.980;2023-05-27T07:54:44;13.90;;;6.38;;
64712;SDS011;51140;45.340;5.980;2023-05-27T07:57:09;10.40;;;6.47;;
64712;SDS011;51140;45.340;5.980;2023-05-27T07:59:35;10.38;;;6.15;;
64712;SDS011;51140;45.340;5.980;2023-05-27T08:02:00;10.07;;;6.53;;
64712;SDS011;51140;45.340;5.980;2023-05-27T08:04:25;9.75;;;6.45;;
64712;SDS011;51140;45.340;5.980;2023-05-27T08:06:51;9.93;;;6.88;;
64712;SDS011;51140;45.340;5.980;2023-05-27T08:09:17;11.13;;;6.55;;
64712;SDS011;51140;45.340;5.980;2023-05-27T08:11:42;8.30;;;6.13;;
64712;SDS011;51140;45.340;5.980;2023-05-27T08:14:07;9.60;;;6.38;;
64712;SDS011;51140;45.340;5.980;2023-05-27T08:16:33;10.50;;;5.78;;
64712;SDS011;51140;45.340;5.980;2023-05-27T08:18:58;8.88;;;5.75;;
64712;SDS011;51140;45.340;5.980;2023-05-27T08:21:25;11.05;;;6.25;;
64712;SDS011;51140;45.340;5.980;2023-05-27T08:23:50;13.43;;;6.63;;
64712;SDS011;51140;45.340;5.980;2023-05-27T08:26:16;9.63;;;5.90;;
64712;SDS011;51140;45.340;5.980;2023-05-27T08:28:41;15.10;;;6.20;;
64712;SDS011;51140;45.340;5.980;2023-05-27T08:31:07;12.02;;;5.55;;
64712;SDS011;51140;45.340;5.980;2023-05-27T08:33:32;11.00;;;6.07;;
64712;SDS011;51140;45.340;5.980;2023-05-27T08:35:58;10.55;;;5.95;;
64712;SDS011;51140;45.340;5.980;2023-05-27T08:38:23;8.75;;;6.22;;
64712;SDS011;51140;45.340;5.980;2023-05-27T08:40:48;10.65;;;6.78;;
64712;SDS011;51140;45.340;5.980;2023-05-27T08:43:14;11.82;;;6.05;;
64712;SDS011;51140;45.340;5.980;2023-05-27T08:45:40;11.60;;;6.53;;
64712;SDS011;51140;45.340;5.980;2023-05-27T08:48:09;12.30;;;6.03;;
64712;SDS011;51140;45.340;5.980;2023-05-27T08:50:35;10.85;;;6.00;;
64712;SDS011;51140;45.340;5.980;2023-05-27T08:53:01;11.60;;;6.40;;
64712;SDS011;51140;45.340;5.980;2023-05-27T08:55:27;12.07;;;6.97;;
64712;SDS011;51140;45.340;5.980;2023-05-27T08:57:56;11.43;;;6.65;;
64712;SDS011;51140;45.340;5.980;2023-05-27T09:00:23;12.18;;;6.85;;
64712;SDS011;51140;45.340;5.980;2023-05-27T09:02:48;12.32;;;6.97;;
64712;SDS011;51140;45.340;5.980;2023-05-27T09:05:15;9.30;;;6.18;;
64712;SDS011;51140;45.340;5.980;2023-05-27T09:07:43;10.27;;;6.90;;
64712;SDS011;51140;45.340;5.980;2023-05-27T09:10:09;8.93;;;6.70;;
64712;SDS011;51140;45.340;5.980;2023-05-27T09:12:35;12.27;;;6.57;;
64712;SDS011;51140;45.340;5.980;2023-05-27T09:15:01;10.98;;;6.32;;
64712;SDS011;51140;45.340;5.980;2023-05-27T09:17:28;9.98;;;5.85;;
64712;SDS011;51140;45.340;5.980;2023-05-27T09:19:54;10.25;;;6.15;;
64712;SDS011;51140;45.340;5.980;2023-05-27T09:24:53;11.38;;;5.88;;
64712;SDS011;51140;45.340;5.980;2023-05-27T09:27:29;10.93;;;6.30;;
64712;SDS011;51140;45.340;5.980;2023-05-27T09:29:56;9.93;;;5.88;;
64712;SDS011;51140;45.340;5.980;2023-05-27T09:32:26;9.35;;;5.90;;
64712;SDS011;51140;45.340;5.980;2023-05-27T09:34:53;9.10;;;5.97;;
64712;SDS011;51140;45.340;5.980;2023-05-27T09:37:25;10.68;;;6.00;;
64712;SDS011;51140;45.340;5.980;2023-05-27T09:39:56;9.50;;;5.60;;
64712;SDS011;51140;45.340;5.980;2023-05-27T09:42:22;9.20;;;5.85;;
64712;SDS011;51140;45.340;5.980;2023-05-27T09:44:48;11.18;;;6.70;;
64712;SDS011;51140;45.340;5.980;2023-05-27T09:47:15;11.18;;;6.75;;
64712;SDS011;51140;45.340;5.980;2023-05-27T09:49:42;11.18;;;5.88;;
64712;SDS011;51140;45.340;5.980;2023-05-27T09:52:09;11.68;;;6.40;;
64712;SDS011;51140;45.340;5.980;2023-05-27T09:54:36;10.88;;;6.50;;
64712;SDS011;51140;45.340;5.980;2023-05-27T09:57:02;11.90;;;6.03;;
64712;SDS011;51140;45.340;5.980;2023-05-27T09:59:30;11.32;;;6.15;;
64712;SDS011;51140;45.340;5.980;2023-05-27T10:01:56;10.70;;;5.97;;
64712;SDS011;51140;45.340;5.980;2023-05-27T10:04:24;11.07;;;6.25;;
64712;SDS011;51140;45.340;5.980;2023-05-27T10:06:50;11.63;;;6.40;;
64712;SDS011;51140;45.340;5.980;2023-05-27T10:09:16;12.32;;;6.32;;
64712;SDS011;51140;45.340;5.980;2023-05-27T10:11:41;9.82;;;6.20;;
64712;SDS011;51140;45.340;5.980;2023-05-27T10:14:08;10.18;;;6.40;;
64712;SDS011;51140;45.340;5.980;2023-05-27T10:16:35;11.52;;;6.32;;
64712;SDS011;51140;45.340;5.980;2023-05-27T10:19:01;9.30;;;6.40;;
64712;SDS011;51140;45.340;5.980;2023-05-27T10:21:27;10.95;;;6.13;;
64712;SDS011;51140;45.340;5.980;2023-05-27T10:24:01;9.35;;;6.25;;
64712;SDS011;51140;45.340;5.980;2023-05-27T10:26:45;12.77;;;6.73;;
64712;SDS011;51140;45.340;5.980;2023-05-27T10:29:13;11.15;;;6.53;;
64712;SDS011;51140;45.340;5.980;2023-05-27T10:31:44;11.00;;;6.95;;
64712;SDS011;51140;45.340;5.980;2023-05-27T10:34:11;9.55;;;6.40;;
64712;SDS011;51140;45.340;5.980;2023-05-27T10:36:37;10.63;;;6.47;;
64712;SDS011;51140;45.340;5.980;2023-05-27T10:39:04;10.38;;;6.90;;
64712;SDS011;51140;45.340;5.980;2023-05-27T10:44:34;11.43;;;7.13;;
64712;SDS011;51140;45.340;5.980;2023-05-27T10:47:04;9.48;;;6.50;;
64712;SDS011;51140;45.340;5.980;2023-05-27T10:49:38;9.70;;;6.80;;
64712;SDS011;51140;45.340;5.980;2023-05-27T10:54:33;12.02;;;6.65;;
64712;SDS011;51140;45.340;5.980;2023-05-27T10:56:59;9.45;;;6.43;;
64712;SDS011;51140;45.340;5.980;2023-05-27T10:59:25;10.15;;;6.25;;
64712;SDS011;51140;45.340;5.980;2023-05-27T11:02:03;9.13;;;6.10;;
64712;SDS011;51140;45.340;5.980;2023-05-27T11:04:34;10.18;;;6.32;;
64712;SDS011;51140;45.340;5.980;2023-05-27T11:07:00;9.38;;;6.50;;
64712;SDS011;51140;45.340;5.980;2023-05-27T11:09:26;14.55;;;6.72;;
64712;SDS011;51140;45.340;5.980;2023-05-27T11:11:52;10.02;;;6.63;;
64712;SDS011;51140;45.340;5.980;2023-05-27T11:14:17;10.88;;;6.47;;
64712;SDS011;51140;45.340;5.980;2023-05-27T11:16:48;9.18;;;6.40;;
64712;SDS011;51140;45.340;5.980;2023-05-27T11:19:16;11.20;;;6.28;;
64712;SDS011;51140;45.340;5.980;2023-05-27T11:24:17;10.50;;;7.30;;
64712;SDS011;51140;45.340;5.980;2023-05-27T11:26:43;12.98;;;6.97;;
64712;SDS011;51140;45.340;5.980;2023-05-27T11:29:11;9.60;;;6.18;;
64712;SDS011;51140;45.340;5.980;2023-05-27T11:31:37;9.73;;;5.63;;
64712;SDS011;51140;45.340;5.980;2023-05-27T11:34:10;9.15;;;6.18;;
64712;SDS011;51140;45.340;5.980;2023-05-27T11:36:37;9.80;;;6.47;;
64712;SDS011;51140;45.340;5.980;2023-05-27T11:39:03;12.35;;;6.75;;
64712;SDS011;51140;45.340;5.980;2023-05-27T11:41:29;10.40;;;6.50;;
64712;SDS011;51140;45.340;5.980;2023-05-27T11:43:56;11.43;;;7.20;;
64712;SDS011;51140;45.340;5.980;2023-05-27T11:46:23;12.23;;;6.68;;
64712;SDS011;51140;45.340;5.980;2023-05-27T11:48:57;11.95;;;6.50;;
64712;SDS011;51140;45.340;5.980;2023-05-27T11:51:26;9.82;;;5.78;;
64712;SDS011;51140;45.340;5.980;2023-05-27T11:53:53;10.38;;;6.03;;
64712;SDS011;51140;45.340;5.980;2023-05-27T11:56:19;10.88;;;5.65;;
64712;SDS011;51140;45.340;5.980;2023-05-27T11:58:45;10.65;;;5.80;;
64712;SDS011;51140;45.340;5.980;2023-05-27T12:01:10;9.52;;;5.60;;
64712;SDS011;51140;45.340;5.980;2023-05-27T12:03:36;9.27;;;5.43;;
64712;SDS011;51140;45.340;5.980;2023-05-27T12:06:02;11.88;;;5.65;;
64712;SDS011;51140;45.340;5.980;2023-05-27T12:08:28;11.45;;;5.80;;
64712;SDS011;51140;45.340;5.980;2023-05-27T12:10:54;9.10;;;5.38;;
64712;SDS011;51140;45.340;5.980;2023-05-27T12:13:20;11.60;;;5.90;;
64712;SDS011;51140;45.340;5.980;2023-05-27T12:15:49;9.77;;;5.85;;
64712;SDS011;51140;45.340;5.980;2023-05-27T12:18:15;9.48;;;5.70;;
64712;SDS011;51140;45.340;5.980;2023-05-27T12:20:41;9.55;;;5.50;;
64712;SDS011;51140;45.340;5.980;2023-05-27T12:23:06;8.45;;;5.57;;
64712;SDS011;51140;45.340;5.980;2023-05-27T12:25:32;11.30;;;5.70;;
64712;SDS011;51140;45.340;5.980;2023-05-27T12:27:57;9.35;;;5.63;;
64712;SDS011;51140;45.340;5.980;2023-05-27T12:30:22;7.78;;;5.28;;
64712;SDS011;51140;45.340;5.980;2023-05-27T12:32:48;11.25;;;5.97;;
64712;SDS011;51140;45.340;5.980;2023-05-27T12:35:13;9.02;;;5.80;;
64712;SDS011;51140;45.340;5.980;2023-05-27T12:37:39;9.20;;;5.65;;
64712;SDS011;51140;45.340;5.980;2023-05-27T12:40:05;10.45;;;6.35;;
64712;SDS011;51140;45.340;5.980;2023-05-27T12:42:30;9.40;;;5.90;;
64712;SDS011;51140;45.340;5.980;2023-05-27T12:44:57;11.30;;;6.45;;
64712;SDS011;51140;45.340;5.980;2023-05-27T12:47:23;10.38;;;6.20;;
64712;SDS011;51140;45.340;5.980;2023-05-27T12:49:48;8.52;;;5.70;;
64712;SDS011;51140;45.340;5.980;2023-05-27T12:52:14;16.13;;;6.75;;
64712;SDS011;51140;45.340;5.980;2023-05-27T12:54:39;10.85;;;5.80;;
64712;SDS011;51140;45.340;5.980;2023-05-27T12:57:04;10.95;;;5.53;;
64712;SDS011;51140;45.340;5.980;2023-05-27T12:59:30;9.77;;;5.55;;
64712;SDS011;51140;45.340;5.980;2023-05-27T13:01:56;11.82;;;5.90;;
64712;SDS011;51140;45.340;5.980;2023-05-27T13:04:21;10.27;;;5.78;;
64712;SDS011;51140;45.340;5.980;2023-05-27T13:06:47;10.82;;;5.00;;
64712;SDS011;51140;45.340;5.980;2023-05-27T13:09:12;9.07;;;5.35;;
64712;SDS011;51140;45.340;5.980;2023-05-27T13:11:39;9.15;;;5.72;;
64712;SDS011;51140;45.340;5.980;2023-05-27T13:14:04;8.90;;;5.72;;
64712;SDS011;51140;45.340;5.980;2023-05-27T13:16:31;12.02;;;6.18;;
64712;SDS011;51140;45.340;5.980;2023-05-27T13:18:56;11.98;;;6.07;;
64712;SDS011;51140;45.340;5.980;2023-05-27T13:21:21;11.60;;;5.95;;
64712;SDS011;51140;45.340;5.980;2023-05-27T13:23:47;10.90;;;5.65;;
64712;SDS011;51140;45.340;5.980;2023-05-27T13:26:12;10.75;;;5.75;;
64712;SDS011;51140;45.340;5.980;2023-05-27T13:28:38;9.02;;;5.68;;
64712;SDS011;51140;45.340;5.980;2023-05-27T13:31:03;9.48;;;6.00;;
64712;SDS011;51140;45.340;5.980;2023-05-27T13:33:29;8.40;;;5.50;;
64712;SDS011;51140;45.340;5.980;2023-05-27T13:35:55;9.82;;;5.25;;
64712;SDS011;51140;45.340;5.980;2023-05-27T13:38:21;11.13;;;5.18;;
64712;SDS011;51140;45.340;5.980;2023-05-27T13:40:46;8.98;;;5.57;;
64712;SDS011;51140;45.340;5.980;2023-05-27T13:43:11;10.88;;;5.60;;
64712;SDS011;51140;45.340;5.980;2023-05-27T13:45:37;10.75;;;5.07;;
64712;SDS011;51140;45.340;5.980;2023-05-27T13:48:02;9.60;;;5.55;;
64712;SDS011;51140;45.340;5.980;2023-05-27T13:50:28;9.85;;;5.00;;
64712;SDS011;51140;45.340;5.980;2023-05-27T13:52:54;11.50;;;5.45;;
64712;SDS011;51140;45.340;5.980;2023-05-27T13:55:19;12.00;;;5.63;;
64712;SDS011;51140;45.340;5.980;2023-05-27T13:57:45;10.70;;;5.35;;
64712;SDS011;51140;45.340;5.980;2023-05-27T14:00:10;10.18;;;5.50;;
64712;SDS011;51140;45.340;5.980;2023-05-27T14:02:36;12.05;;;5.50;;
64712;SDS011;51140;45.340;5.980;2023-05-27T14:05:02;8.25;;;5.18;;
64712;SDS011;51140;45.340;5.980;2023-05-27T14:07:28;9.57;;;5.20;;
64712;SDS011;51140;45.340;5.980;2023-05-27T14:09:54;9.23;;;5.47;;
64712;SDS011;51140;45.340;5.980;2023-05-27T14:12:19;10.15;;;5.50;;
64712;SDS011;51140;45.340;5.980;2023-05-27T14:14:45;10.52;;;5.72;;
64712;SDS011;51140;45.340;5.980;2023-05-27T14:17:10;11.70;;;5.60;;
64712;SDS011;51140;45.340;5.980;2023-05-27T14:19:35;10.73;;;5.45;;
64712;SDS011;51140;45.340;5.980;2023-05-27T14:22:01;11.52;;;6.18;;
64712;SDS011;51140;45.340;5.980;2023-05-27T14:24:27;9.30;;;5.38;;
64712;SDS011;51140;45.340;5.980;2023-05-27T14:26:52;10.63;;;5.55;;
64712;SDS011;51140;45.340;5.980;2023-05-27T14:29:17;9.68;;;6.15;;
64712;SDS011;51140;45.340;5.980;2023-05-27T14:31:43;9.05;;;5.70;;
64712;SDS011;51140;45.340;5.980;2023-05-27T14:34:08;10.80;;;6.22;;
64712;SDS011;51140;45.340;5.980;2023-05-27T14:36:33;8.45;;;5.40;;
64712;SDS011;51140;45.340;5.980;2023-05-27T14:38:59;9.38;;;5.60;;
64712;SDS011;51140;45.340;5.980;2023-05-27T14:41:28;11.20;;;6.05;;
64712;SDS011;51140;45.340;5.980;2023-05-27T14:43:53;11.85;;;5.70;;
64712;SDS011;51140;45.340;5.980;2023-05-27T14:46:19;12.45;;;5.88;;